Time;durP1;ratioP1;P1;durP2;ratioP2;P2;SDS_P1;SDS_P2;PMS_P1;PMS_P2;Temp;Humidity;BMP_temperature;BMP_pressure;BME280_temperature;BME280_humidity;BME280_pressure;Samples;Min_cycle;Max_cycle;Signal;HPM_P1;HPM_P2
2023/02/20 00:00:19;;;;;;;12.90;7.38;;;6.00;99.90;;;;;;4850859;29;20132;-93
2023/02/20 00:02:49;;;;;;;12.77;7.78;;;6.10;99.90;;;;;;4851438;29;20454;-92
2023/02/20 00:05:19;;;;;;;12.73;7.30;;;6.10;99.90;;;;;;4865984;29;20057;-92
2023/02/20 00:07:49;;;;;;;13.38;7.82;;;6.10;99.90;;;;;;4878780;29;20053;-92
2023/02/20 00:10:16;;;;;;;12.82;7.35;;;6.10;99.90;;;;;;4866005;29;20076;-92
2023/02/20 00:12:47;;;;;;;14.98;7.97;;;6.10;99.90;;;;;;4850796;29;20041;-92
2023/02/20 00:15:18;;;;;;;13.52;8.18;;;6.20;99.90;;;;;;4866083;29;20110;-89
2023/02/20 00:17:46;;;;;;;10.73;7.43;;;6.20;99.90;;;;;;4865551;29;20057;-89
2023/02/20 00:20:18;;;;;;;12.50;8.35;;;6.20;99.90;;;;;;4850293;29;20124;-88
2023/02/20 00:22:49;;;;;;;14.55;7.85;;;6.20;99.90;;;;;;4865376;29;20053;-89
2023/02/20 00:25:19;;;;;;;15.20;8.50;;;6.20;99.90;;;;;;4865315;29;20049;-89
2023/02/20 00:27:46;;;;;;;15.45;9.65;;;6.20;99.90;;;;;;4857443;29;20080;-89
2023/02/20 00:30:21;;;;;;;14.55;8.85;;;6.20;99.90;;;;;;4865578;29;20577;-92
2023/02/20 00:32:51;;;;;;;13.45;8.50;;;6.20;99.90;;;;;;4847898;29;20045;-92
2023/02/20 00:35:21;;;;;;;13.13;8.73;;;6.30;99.90;;;;;;4847357;29;20057;-91
2023/02/20 00:37:52;;;;;;;15.70;9.13;;;6.30;99.90;;;;;;4865303;29;20520;-92
2023/02/20 00:40:22;;;;;;;16.20;9.73;;;6.30;99.90;;;;;;4865831;29;20482;-91
2023/02/20 00:42:54;;;;;;;17.65;11.43;;;6.30;99.90;;;;;;4850620;29;20048;-90
2023/02/20 00:45:33;;;;;;;;;;;6.30;99.90;;;;;;4833915;29;20422;-92
2023/02/20 00:48:01;;;;;;;17.23;10.40;;;6.30;99.90;;;;;;4846951;29;20389;-91
2023/02/20 00:50:29;;;;;;;14.45;9.43;;;6.30;99.90;;;;;;4847167;29;20069;-91
2023/02/20 00:52:56;;;;;;;15.50;9.65;;;6.30;99.90;;;;;;4831650;29;20069;-91
2023/02/20 00:55:23;;;;;;;16.70;10.30;;;6.40;99.90;;;;;;4847100;29;20073;-92
2023/02/20 00:57:51;;;;;;;16.05;9.98;;;6.40;99.90;;;;;;4846750;29;20493;-92
2023/02/20 01:00:27;;;;;;;17.13;9.52;;;6.40;99.90;;;;;;4847374;29;20052;-91
2023/02/20 01:02:58;;;;;;;14.43;8.25;;;6.40;99.90;;;;;;4866254;29;20053;-87
2023/02/20 01:05:25;;;;;;;14.10;8.20;;;6.40;99.90;;;;;;4851336;29;20049;-89
2023/02/20 01:07:55;;;;;;;15.45;9.30;;;6.40;99.90;;;;;;4860817;29;20511;-89
2023/02/20 01:10:22;;;;;;;13.00;8.20;;;6.40;99.90;;;;;;4854741;29;20056;-87
2023/02/20 01:12:49;;;;;;;13.18;7.88;;;6.30;99.90;;;;;;4864459;29;20136;-89
2023/02/20 01:15:17;;;;;;;14.40;8.93;;;6.30;99.90;;;;;;4849281;29;20112;-88
2023/02/20 01:17:45;;;;;;;14.35;8.40;;;6.30;99.90;;;;;;4849270;29;20045;-88
2023/02/20 01:20:16;;;;;;;13.13;7.60;;;6.20;99.90;;;;;;4849222;29;20053;-89
2023/02/20 01:22:43;;;;;;;14.35;7.88;;;6.20;99.90;;;;;;4864235;29;20509;-87
2023/02/20 01:25:10;;;;;;;15.43;8.85;;;6.20;99.90;;;;;;4848918;29;20516;-87
2023/02/20 01:27:39;;;;;;;13.23;7.13;;;6.20;99.90;;;;;;4864147;29;20060;-87
2023/02/20 01:30:08;;;;;;;11.32;7.25;;;6.20;99.90;;;;;;4864328;29;20057;-88
2023/02/20 01:32:35;;;;;;;13.20;7.40;;;6.20;99.90;;;;;;4864079;29;20045;-89
2023/02/20 01:35:03;;;;;;;13.63;7.22;;;6.10;99.90;;;;;;4863921;29;20140;-88
2023/02/20 01:37:30;;;;;;;13.27;6.95;;;6.10;99.90;;;;;;4848858;29;20081;-89
2023/02/20 01:40:00;;;;;;;14.25;7.43;;;6.10;99.90;;;;;;4864122;29;20052;-89
2023/02/20 01:42:32;;;;;;;14.77;6.97;;;6.10;99.90;;;;;;4848558;29;20045;-89
2023/02/20 01:45:19;;;;;;;14.27;7.63;;;6.10;99.90;;;;;;4848094;29;20056;-89
2023/02/20 01:47:48;;;;;;;12.45;6.75;;;6.10;99.90;;;;;;4867161;29;20076;-87
2023/02/20 01:50:20;;;;;;;12.10;7.15;;;6.10;99.90;;;;;;4851430;29;20061;-89
2023/02/20 01:52:49;;;;;;;;;;;6.10;99.90;;;;;;4864158;29;20120;-89
2023/02/20 01:55:26;;;;;;;11.07;6.57;;;6.00;99.90;;;;;;4863937;29;19960;-88
2023/02/20 01:58:00;;;;;;;12.13;6.22;;;5.90;99.90;;;;;;4864223;29;20072;-88
2023/02/20 02:00:32;;;;;;;12.65;7.32;;;5.90;99.90;;;;;;4848252;29;20065;-89
2023/02/20 02:03:05;;;;;;;15.23;7.15;;;6.00;99.90;;;;;;4848880;29;20510;-89
2023/02/20 02:05:33;;;;;;;10.55;6.18;;;6.00;99.90;;;;;;4848184;29;20487;-88
2023/02/20 02:08:04;;;;;;;14.90;7.28;;;6.00;99.90;;;;;;4848516;29;20041;-89
2023/02/20 02:10:50;;;;;;;15.88;7.70;;;6.00;99.90;;;;;;4863068;29;20144;-89
2023/02/20 02:13:17;;;;;;;17.88;9.05;;;6.00;99.90;;;;;;4845628;29;20069;-87
2023/02/20 02:15:45;;;;;;;13.30;8.30;;;6.00;99.90;;;;;;4868521;29;20505;-89
2023/02/20 02:18:50;;;;;;;14.95;8.40;;;6.00;99.90;;;;;;4849487;29;20405;-88
2023/02/20 02:21:29;;;;;;;18.02;8.98;;;6.00;99.90;;;;;;4863336;29;20049;-93
2023/02/20 02:24:14;;;;;;;16.20;9.05;;;6.00;99.90;;;;;;4849006;29;20132;-93
2023/02/20 02:27:15;;;;;;;16.45;8.40;;;6.00;99.90;;;;;;4878311;29;20049;-92
2023/02/20 02:30:11;;;;;;;14.73;8.00;;;6.10;99.90;;;;;;4848934;29;20463;-93
2023/02/20 02:33:11;;;;;;;12.32;7.20;;;6.00;99.90;;;;;;4848928;29;20071;-92
2023/02/20 02:35:56;;;;;;;12.27;7.50;;;6.00;99.90;;;;;;4864106;29;20496;-93
2023/02/20 02:38:29;;;;;;;13.43;6.78;;;6.00;99.90;;;;;;4865913;29;20421;-92
2023/02/20 02:41:15;;;;;;;13.75;7.88;;;6.10;99.90;;;;;;4863680;29;20053;-92
2023/02/20 02:43:58;;;;;;;16.73;8.13;;;6.10;99.90;;;;;;4863650;29;20458;-92
2023/02/20 02:46:41;;;;;;;17.25;9.50;;;6.20;99.90;;;;;;4863810;29;20055;-92
2023/02/20 02:49:30;;;;;;;16.65;9.23;;;6.30;99.90;;;;;;4864727;29;20182;-91
2023/02/20 02:52:02;;;;;;;16.90;9.23;;;6.40;99.90;;;;;;4878051;29;20048;-92
2023/02/20 02:54:30;;;;;;;18.80;9.98;;;6.40;99.90;;;;;;4865128;29;20417;-93
2023/02/20 02:57:33;;;;;;;19.20;9.63;;;6.40;99.90;;;;;;4864121;29;20501;-93
2023/02/20 03:00:10;;;;;;;17.95;10.60;;;6.50;99.90;;;;;;4811345;29;20088;-93
2023/02/20 03:03:08;;;;;;;20.08;10.60;;;6.50;99.90;;;;;;4843542;29;20102;-92
2023/02/20 03:05:47;;;;;;;21.33;11.27;;;6.60;99.90;;;;;;4815657;29;20136;-91
2023/02/20 03:08:39;;;;;;;24.65;14.18;;;6.60;99.90;;;;;;4864466;29;20505;-92
2023/02/20 03:11:14;;;;;;;26.48;14.98;;;6.60;99.90;;;;;;4863577;29;20556;-92
2023/02/20 03:17:07;;;;;;;25.05;14.30;;;6.70;99.90;;;;;;4864111;29;20113;-93
2023/02/20 03:19:41;;;;;;;23.95;15.10;;;6.70;99.90;;;;;;4863959;29;20101;-93
2023/02/20 03:22:16;;;;;;;29.70;15.85;;;6.70;99.90;;;;;;4875483;29;20049;-92
2023/02/20 03:24:56;;;;;;;30.42;16.83;;;6.70;99.90;;;;;;4866571;29;20067;-92
2023/02/20 03:27:37;;;;;;;37.08;18.88;;;6.70;99.90;;;;;;4866799;29;20049;-91
2023/02/20 03:30:21;;;;;;;33.35;19.13;;;6.70;99.90;;;;;;4871542;29;20052;-91
2023/02/20 03:44:43;;;;;;;37.88;21.77;;;6.70;99.90;;;;;;4866843;29;20049;-91
2023/02/20 03:47:17;;;;;;;41.22;22.42;;;6.70;99.90;;;;;;4852136;29;20049;-92
2023/02/20 03:52:35;;;;;;;40.60;22.02;;;6.70;99.90;;;;;;4863319;29;20052;-92
2023/02/20 03:55:03;;;;;;;36.03;22.52;;;6.70;99.90;;;;;;4847828;29;20045;-92
2023/02/20 03:57:36;;;;;;;39.65;23.05;;;6.70;99.90;;;;;;4879013;29;20049;-93
2023/02/20 04:00:19;;;;;;;40.10;22.50;;;6.80;99.90;;;;;;4866823;29;20049;-92
2023/02/20 04:02:55;;;;;;;40.83;23.45;;;6.80;99.90;;;;;;4866109;29;20049;-93
2023/02/20 04:05:34;;;;;;;49.13;25.50;;;6.80;99.90;;;;;;4865910;29;20068;-93
2023/02/20 04:08:05;;;;;;;43.05;25.45;;;6.80;99.90;;;;;;4865813;29;20086;-92
2023/02/20 04:10:47;;;;;;;47.25;27.00;;;6.80;99.90;;;;;;4868095;29;20094;-92
2023/02/20 04:13:19;;;;;;;43.25;25.90;;;6.80;99.90;;;;;;4850762;29;20045;-92
2023/02/20 04:15:48;;;;;;;49.25;27.63;;;6.80;99.90;;;;;;4866074;29;20045;-92
2023/02/20 04:18:21;;;;;;;43.22;25.70;;;6.90;99.90;;;;;;4850606;29;20484;-92
2023/02/20 04:20:54;;;;;;;45.15;24.52;;;6.90;99.90;;;;;;4865507;29;20049;-93
2023/02/20 04:23:30;;;;;;;40.78;23.83;;;6.90;99.90;;;;;;4866192;29;20053;-93
2023/02/20 04:26:23;;;;;;;39.33;21.95;;;6.90;99.90;;;;;;4865445;29;20459;-93
2023/02/20 04:28:54;;;;;;;39.97;23.65;;;6.90;99.90;;;;;;4865907;29;20132;-93
2023/02/20 04:31:22;;;;;;;43.85;24.27;;;7.00;99.90;;;;;;4865905;29;20071;-93
2023/02/20 04:33:50;;;;;;;47.63;26.80;;;7.00;99.90;;;;;;4849696;29;20101;-93
2023/02/20 04:36:21;;;;;;;48.92;26.77;;;7.10;99.90;;;;;;4855962;29;20053;-93
2023/02/20 04:38:50;;;;;;;49.63;26.15;;;7.10;99.90;;;;;;4853259;29;20080;-92
2023/02/20 04:41:24;;;;;;;51.45;26.17;;;7.10;99.90;;;;;;4857823;29;20171;-91
2023/02/20 04:46:47;;;;;;;52.75;27.35;;;7.10;99.90;;;;;;4865811;29;20076;-93
2023/02/20 04:49:15;;;;;;;44.97;26.38;;;7.10;99.90;;;;;;4865795;29;20049;-92
2023/02/20 04:51:51;;;;;;;42.92;26.17;;;7.20;99.90;;;;;;4851060;29;20061;-92
2023/02/20 04:54:20;;;;;;;50.38;26.27;;;7.20;99.90;;;;;;4876431;29;20055;-93
2023/02/20 04:56:51;;;;;;;49.53;27.83;;;7.20;99.90;;;;;;4865173;29;20053;-93
2023/02/20 04:59:20;;;;;;;53.90;28.52;;;7.20;99.90;;;;;;4850353;29;20101;-91
2023/02/20 05:01:50;;;;;;;47.42;26.50;;;7.20;99.90;;;;;;4864869;29;20168;-92
2023/02/20 05:04:18;;;;;;;44.78;26.15;;;7.30;99.90;;;;;;4864649;29;20053;-93
2023/02/20 05:06:48;;;;;;;49.38;27.08;;;7.30;99.90;;;;;;4864833;29;20100;-92
2023/02/20 05:09:16;;;;;;;54.95;27.65;;;7.30;99.90;;;;;;4864796;29;20129;-93
2023/02/20 05:11:43;;;;;;;54.33;27.65;;;7.30;99.90;;;;;;4849970;29;20056;-93
2023/02/20 05:14:11;;;;;;;52.63;26.73;;;7.30;99.90;;;;;;4882627;29;20056;-93
2023/02/20 05:16:43;;;;;;;45.28;25.85;;;7.30;99.90;;;;;;4849582;29;20097;-92
2023/02/20 05:19:12;;;;;;;53.08;26.90;;;7.30;99.90;;;;;;4864868;29;20104;-93
2023/02/20 05:24:31;;;;;;;39.30;21.67;;;7.40;99.90;;;;;;4864621;29;20045;-92
2023/02/20 05:27:01;;;;;;;43.63;24.05;;;7.40;99.90;;;;;;4864493;29;20132;-93
2023/02/20 05:29:28;;;;;;;39.17;24.00;;;7.40;99.90;;;;;;4849461;29;20075;-93
2023/02/20 05:31:55;;;;;;;37.60;21.48;;;7.40;99.90;;;;;;4864715;29;20049;-91
2023/02/20 05:34:24;;;;;;;36.97;21.30;;;7.40;99.90;;;;;;4849594;29;20045;-92
2023/02/20 05:36:53;;;;;;;37.38;21.83;;;7.40;99.90;;;;;;4864205;29;20045;-92
2023/02/20 05:39:20;;;;;;;35.10;19.77;;;7.50;99.90;;;;;;4864566;29;20053;-92
2023/02/20 05:41:48;;;;;;;39.03;20.73;;;7.50;99.90;;;;;;4862005;29;20072;-93
2023/02/20 05:44:15;;;;;;;36.40;20.30;;;7.50;99.90;;;;;;4849181;29;20215;-92
2023/02/20 05:46:43;;;;;;;38.60;22.00;;;7.50;99.90;;;;;;4864142;29;20101;-93
2023/02/20 05:49:10;;;;;;;38.08;21.10;;;7.50;99.90;;;;;;4864098;29;20088;-93
2023/02/20 05:51:38;;;;;;;37.58;20.40;;;7.60;99.90;;;;;;4864201;29;20052;-91
2023/02/20 05:54:05;;;;;;;42.92;21.33;;;7.60;99.90;;;;;;4833907;29;20045;-93
2023/02/20 05:56:41;;;;;;;40.05;20.25;;;7.60;99.90;;;;;;4864375;29;20135;-92
2023/02/20 05:59:08;;;;;;;36.58;19.20;;;7.60;99.90;;;;;;4864153;29;20540;-92
2023/02/20 06:01:36;;;;;;;38.42;19.48;;;7.70;99.90;;;;;;4863904;29;20148;-92
2023/02/20 06:04:04;;;;;;;39.97;18.65;;;7.60;99.90;;;;;;4880934;29;20509;-93
2023/02/20 06:06:39;;;;;;;32.80;18.65;;;7.70;99.90;;;;;;4872234;29;20063;-92
2023/02/20 06:09:09;;;;;;;39.00;20.58;;;7.70;99.90;;;;;;4864048;29;20387;-94
2023/02/20 06:11:37;;;;;;;33.30;19.08;;;7.70;99.90;;;;;;4863905;29;20053;-94
2023/02/20 06:14:06;;;;;;;38.22;18.75;;;7.70;99.90;;;;;;4848440;29;20075;-92
2023/02/20 06:16:34;;;;;;;34.42;18.42;;;7.70;99.90;;;;;;4863774;29;20522;-93
2023/02/20 06:19:02;;;;;;;35.03;17.52;;;7.80;99.90;;;;;;4848665;29;20056;-93
2023/02/20 06:21:29;;;;;;;37.90;19.00;;;7.80;99.90;;;;;;4863573;29;20077;-92
2023/02/20 06:23:58;;;;;;;37.10;20.10;;;7.80;99.90;;;;;;4864065;29;20498;-92
2023/02/20 06:26:25;;;;;;;34.75;18.70;;;7.80;99.90;;;;;;4861347;29;20052;-93
2023/02/20 06:28:53;;;;;;;38.10;18.33;;;7.80;99.90;;;;;;4863788;29;20041;-93
2023/02/20 06:31:26;;;;;;;40.33;18.30;;;7.80;99.90;;;;;;4863643;29;20045;-93
2023/02/20 06:33:54;;;;;;;40.75;20.45;;;7.80;99.90;;;;;;4863548;29;20117;-93
2023/02/20 06:36:28;;;;;;;39.10;18.77;;;7.80;99.90;;;;;;4863546;29;20052;-92
2023/02/20 06:38:56;;;;;;;40.88;20.35;;;7.90;99.90;;;;;;4863773;29;20045;-91
2023/02/20 06:41:29;;;;;;;39.80;19.10;;;7.90;99.90;;;;;;4863660;29;20397;-91
2023/02/20 06:43:56;;;;;;;36.00;18.02;;;7.90;99.90;;;;;;4833254;29;20521;-87
2023/02/20 06:46:24;;;;;;;38.20;19.63;;;7.90;99.90;;;;;;4847609;29;20044;-88
2023/02/20 06:48:54;;;;;;;33.45;17.27;;;7.90;99.90;;;;;;4847884;29;20045;-88
2023/02/20 06:51:30;;;;;;;34.25;18.90;;;7.90;99.90;;;;;;4847617;29;20514;-87
2023/02/20 06:54:02;;;;;;;44.40;19.75;;;8.00;99.90;;;;;;4863252;29;20486;-88
2023/02/20 06:56:32;;;;;;;40.70;20.17;;;8.00;99.90;;;;;;4845445;29;20069;-88
2023/02/20 06:59:04;;;;;;;43.28;20.58;;;8.00;99.90;;;;;;4849958;29;20528;-89
2023/02/20 07:01:38;;;;;;;40.00;18.83;;;8.00;99.90;;;;;;4866541;29;20053;-87
2023/02/20 07:04:06;;;;;;;30.13;16.05;;;8.00;99.90;;;;;;4866023;29;20053;-87
2023/02/20 07:06:33;;;;;;;32.92;16.23;;;8.00;99.90;;;;;;4866487;29;20057;-87
2023/02/20 07:09:01;;;;;;;39.17;19.02;;;8.10;99.90;;;;;;4865968;29;20049;-86
2023/02/20 07:11:31;;;;;;;33.17;16.95;;;8.10;99.90;;;;;;4875677;29;20045;-87
2023/02/20 07:14:00;;;;;;;32.45;17.23;;;8.10;99.90;;;;;;4866278;29;20101;-87
2023/02/20 07:16:31;;;;;;;30.83;17.17;;;8.10;99.80;;;;;;4850938;29;20072;-88
2023/02/20 07:18:58;;;;;;;35.80;18.92;;;8.10;99.80;;;;;;4850969;29;20064;-86
2023/02/20 07:21:26;;;;;;;36.28;16.52;;;8.10;99.70;;;;;;4850831;29;20117;-88
2023/02/20 07:23:53;;;;;;;35.05;18.13;;;8.10;99.70;;;;;;4865965;29;20057;-87
2023/02/20 07:26:26;;;;;;;36.00;17.85;;;8.20;99.70;;;;;;4869595;29;20101;-87
2023/02/20 07:28:54;;;;;;;35.72;17.67;;;8.20;99.60;;;;;;4850563;29;20446;-88
2023/02/20 07:31:24;;;;;;;34.38;17.17;;;8.20;99.60;;;;;;4865842;29;20080;-88
2023/02/20 07:33:52;;;;;;;34.40;17.73;;;8.20;99.60;;;;;;4850610;29;20045;-87
2023/02/20 07:36:20;;;;;;;35.72;18.13;;;8.20;99.60;;;;;;4865772;29;20057;-87
2023/02/20 07:39:00;;;;;;;32.55;16.35;;;8.20;99.60;;;;;;4865787;29;20056;-87
2023/02/20 07:41:34;;;;;;;33.90;17.63;;;8.30;99.60;;;;;;4865505;29;20141;-87
2023/02/20 07:44:05;;;;;;;37.05;16.83;;;8.20;99.60;;;;;;4865406;29;20045;-87
2023/02/20 07:46:33;;;;;;;33.97;17.23;;;8.30;99.50;;;;;;4850172;29;20045;-87
2023/02/20 07:49:02;;;;;;;37.88;18.60;;;8.30;99.50;;;;;;4865270;29;20615;-88
2023/02/20 07:51:30;;;;;;;34.05;18.27;;;8.30;99.40;;;;;;4865523;29;20061;-86
2023/02/20 07:54:00;;;;;;;40.38;19.67;;;8.30;99.40;;;;;;4865284;29;20049;-86
2023/02/20 07:56:30;;;;;;;38.38;19.25;;;8.30;99.40;;;;;;4865009;29;20053;-87
2023/02/20 07:59:01;;;;;;;36.78;18.55;;;8.30;99.50;;;;;;4850026;29;20061;-87
2023/02/20 08:01:28;;;;;;;40.95;20.08;;;8.30;99.40;;;;;;4865720;29;20617;-86
2023/02/20 08:03:56;;;;;;;37.45;20.20;;;8.30;99.40;;;;;;4838001;29;20040;-87
2023/02/20 08:06:27;;;;;;;35.08;17.85;;;8.40;99.40;;;;;;4874709;29;20090;-87
2023/02/20 08:08:54;;;;;;;42.95;19.45;;;8.40;99.40;;;;;;4864441;29;20074;-87
2023/02/20 08:11:22;;;;;;;33.90;17.63;;;8.40;99.40;;;;;;4860348;29;20045;-88
2023/02/20 08:13:50;;;;;;;38.72;19.67;;;8.40;99.40;;;;;;4858691;29;20057;-87
2023/02/20 08:16:17;;;;;;;34.88;16.88;;;8.40;99.40;;;;;;4849761;29;20053;-87
2023/02/20 08:18:44;;;;;;;33.47;19.42;;;8.40;99.40;;;;;;4865369;29;20060;-87
2023/02/20 08:21:15;;;;;;;42.58;20.92;;;8.40;99.40;;;;;;4865544;29;20049;-87
2023/02/20 08:23:42;;;;;;;38.63;19.95;;;8.50;99.30;;;;;;4864886;29;20139;-87
2023/02/20 08:26:12;;;;;;;38.47;18.08;;;8.50;99.30;;;;;;4864907;29;20045;-86
2023/02/20 08:28:39;;;;;;;30.75;16.80;;;8.50;99.30;;;;;;4850034;29;20049;-86
2023/02/20 08:31:07;;;;;;;33.42;18.77;;;8.50;99.30;;;;;;4849780;29;20071;-86
2023/02/20 08:33:34;;;;;;;33.35;18.17;;;8.50;99.30;;;;;;4864852;29;20046;-86
2023/02/20 08:36:01;;;;;;;33.88;17.45;;;8.50;99.20;;;;;;4849850;29;20061;-92
2023/02/20 08:38:34;;;;;;;28.75;15.88;;;8.60;99.30;;;;;;4865659;29;20481;-93
2023/02/20 08:41:10;;;;;;;33.20;17.50;;;8.60;99.30;;;;;;4865821;29;20124;-93
2023/02/20 08:43:39;;;;;;;35.47;17.05;;;8.60;99.20;;;;;;4865597;29;20053;-92
2023/02/20 08:46:06;;;;;;;31.42;17.75;;;8.60;99.20;;;;;;4865927;29;20048;-89
2023/02/20 08:48:35;;;;;;;28.27;16.42;;;8.60;99.20;;;;;;4865132;29;20045;-92
2023/02/20 08:51:02;;;;;;;32.53;16.42;;;8.60;99.20;;;;;;4865284;29;20504;-92
2023/02/20 08:53:30;;;;;;;32.33;17.67;;;8.70;99.20;;;;;;4869699;29;20117;-91
2023/02/20 08:56:01;;;;;;;36.72;17.63;;;8.70;99.10;;;;;;4865123;29;20091;-93
2023/02/20 08:58:28;;;;;;;47.45;19.63;;;8.70;99.00;;;;;;4864860;29;20057;-93
2023/02/20 09:00:55;;;;;;;33.60;18.50;;;8.70;99.00;;;;;;4849822;29;20056;-89
2023/02/20 09:03:26;;;;;;;36.42;19.70;;;8.70;99.00;;;;;;4878876;29;20049;-92
2023/02/20 09:05:55;;;;;;;34.47;18.35;;;8.70;98.90;;;;;;4866384;29;20061;-93
2023/02/20 09:08:24;;;;;;;35.65;18.13;;;8.80;98.90;;;;;;4850324;29;20127;-93
2023/02/20 09:10:52;;;;;;;38.72;19.35;;;8.80;98.90;;;;;;4864781;29;20045;-93
2023/02/20 09:13:19;;;;;;;34.67;17.60;;;8.90;98.80;;;;;;4848739;29;20065;-86
2023/02/20 09:15:46;;;;;;;28.65;16.55;;;8.90;98.80;;;;;;4848641;29;20124;-86
2023/02/20 09:18:16;;;;;;;32.88;16.80;;;8.90;98.80;;;;;;4848853;29;20056;-83
2023/02/20 09:20:43;;;;;;;37.20;17.58;;;9.00;98.80;;;;;;4848100;29;20498;-94
2023/02/20 09:23:13;;;;;;;28.92;15.30;;;9.00;98.70;;;;;;4880082;29;20056;-92
2023/02/20 09:25:40;;;;;;;28.25;15.90;;;9.00;98.70;;;;;;4849623;29;20060;-93
2023/02/20 09:28:07;;;;;;;35.08;16.75;;;9.00;98.70;;;;;;4849226;29;20065;-87
2023/02/20 09:30:34;;;;;;;34.28;16.75;;;9.00;98.70;;;;;;4872238;29;20055;-93
2023/02/20 09:33:02;;;;;;;28.85;16.58;;;9.00;98.70;;;;;;4869299;29;20385;-92
2023/02/20 09:35:32;;;;;;;30.42;14.68;;;9.00;98.60;;;;;;4864957;29;20053;-92
2023/02/20 09:38:00;;;;;;;28.33;14.43;;;9.10;98.70;;;;;;4864489;29;20045;-93
2023/02/20 09:40:30;;;;;;;30.27;14.85;;;9.10;98.70;;;;;;4849366;29;20049;-93
2023/02/20 09:43:21;;;;;;;31.73;15.27;;;9.10;98.70;;;;;;4834101;29;20447;-93
2023/02/20 09:46:05;;;;;;;30.23;14.85;;;9.10;98.60;;;;;;4830753;29;20045;-92
2023/02/20 09:48:48;;;;;;;26.98;14.13;;;9.10;98.60;;;;;;4858355;29;20049;-92
2023/02/20 09:51:21;;;;;;;26.63;14.88;;;9.20;98.60;;;;;;4863908;29;20048;-92
2023/02/20 09:54:01;;;;;;;25.73;13.20;;;9.10;98.50;;;;;;4863949;29;20051;-94
2023/02/20 09:56:36;;;;;;;27.33;13.85;;;9.10;98.60;;;;;;4849463;29;20505;-94
2023/02/20 09:59:14;;;;;;;28.77;15.20;;;9.10;98.70;;;;;;4864146;29;20053;-93
2023/02/20 10:02:29;;;;;;;23.40;13.38;;;9.10;98.70;;;;;;4864756;29;20049;-92
2023/02/20 10:05:06;;;;;;;26.65;15.00;;;9.10;98.70;;;;;;4847053;29;20060;-94
2023/02/20 10:07:41;;;;;;;27.50;13.80;;;9.00;98.70;;;;;;4845526;29;20048;-92
2023/02/20 10:10:19;;;;;;;27.83;13.95;;;9.00;98.80;;;;;;4848712;29;20049;-92
2023/02/20 10:13:01;;;;;;;23.55;14.18;;;9.00;98.80;;;;;;4877695;29;20044;-93
2023/02/20 10:15:31;;;;;;;28.42;14.50;;;9.00;98.80;;;;;;4873607;29;20052;-93
2023/02/20 10:18:27;;;;;;;22.50;13.63;;;9.00;98.80;;;;;;4866375;29;20045;-89
2023/02/20 10:21:22;;;;;;;24.02;12.85;;;9.00;98.80;;;;;;4871581;29;20048;-95
2023/02/20 10:23:53;;;;;;;26.60;12.00;;;9.00;98.90;;;;;;4845713;29;20058;-94
2023/02/20 10:26:36;;;;;;;27.35;12.75;;;9.00;98.90;;;;;;4847479;29;20050;-94
2023/02/20 10:29:19;;;;;;;22.23;11.93;;;9.00;98.90;;;;;;4845849;29;20498;-93
2023/02/20 10:32:00;;;;;;;21.77;9.50;;;9.10;98.90;;;;;;4845920;29;20049;-95
2023/02/20 10:34:38;;;;;;;18.15;8.80;;;9.10;98.90;;;;;;4831392;29;20054;-93
2023/02/20 10:37:12;;;;;;;21.90;10.30;;;9.10;98.90;;;;;;4847996;29;20049;-94
2023/02/20 10:39:51;;;;;;;20.30;9.73;;;9.10;98.90;;;;;;4847257;29;20106;-95
2023/02/20 10:42:50;;;;;;;19.98;10.18;;;9.10;98.80;;;;;;4846627;29;20053;-95
2023/02/20 10:45:46;;;;;;;25.52;13.30;;;9.10;98.90;;;;;;4837148;29;20508;-95
2023/02/20 10:48:16;;;;;;;28.58;11.85;;;9.20;98.90;;;;;;4846708;29;20045;-96
2023/02/20 10:51:01;;;;;;;18.52;10.95;;;9.10;98.90;;;;;;4849271;29;20049;-93
2023/02/20 10:53:39;;;;;;;24.20;12.10;;;9.20;98.90;;;;;;4864168;29;20055;-95
2023/02/20 10:56:19;;;;;;;20.15;10.52;;;9.20;98.90;;;;;;4864970;29;20049;-96
2023/02/20 10:59:07;;;;;;;22.42;13.15;;;9.20;99.00;;;;;;4864716;29;20061;-93
2023/02/20 11:01:35;;;;;;;23.88;13.50;;;9.20;98.90;;;;;;4845315;29;20054;-93
2023/02/20 11:04:15;;;;;;;24.83;13.57;;;9.20;98.90;;;;;;4845706;29;20050;-93
2023/02/20 11:06:57;;;;;;;29.35;15.07;;;9.20;98.80;;;;;;4842068;29;20053;-93
2023/02/20 11:09:28;;;;;;;21.63;13.55;;;9.20;98.80;;;;;;4849032;29;20049;-94
2023/02/20 11:11:56;;;;;;;23.98;12.57;;;9.20;98.80;;;;;;4863975;29;20049;-93
2023/02/20 11:14:46;;;;;;;21.45;11.70;;;9.20;98.80;;;;;;4878589;29;20044;-95
2023/02/20 11:17:18;;;;;;;21.33;11.60;;;9.30;98.70;;;;;;4860111;29;20526;-94
2023/02/20 11:19:56;;;;;;;21.98;11.95;;;9.30;98.70;;;;;;4844234;29;20065;-94
2023/02/20 11:22:43;;;;;;;20.67;10.68;;;9.30;98.70;;;;;;4844290;29;20059;-94
2023/02/20 11:25:34;;;;;;;20.08;11.57;;;9.30;98.70;;;;;;4844262;29;20061;-95
2023/02/20 11:28:26;;;;;;;21.75;10.27;;;9.30;98.70;;;;;;4859672;29;20502;-94
2023/02/20 11:31:02;;;;;;;18.15;9.23;;;9.30;98.60;;;;;;4844559;29;20197;-93
2023/02/20 11:33:33;;;;;;;20.10;7.95;;;9.40;98.70;;;;;;4859575;29;20070;-96
2023/02/20 11:36:26;;;;;;;16.77;7.78;;;9.40;98.60;;;;;;4859587;29;20086;-92
2023/02/20 11:39:00;;;;;;;15.15;8.05;;;9.40;98.60;;;;;;4822612;29;20043;-95
2023/02/20 11:41:32;;;;;;;14.68;7.03;;;9.40;98.50;;;;;;4807824;29;20070;-94
2023/02/20 11:44:13;;;;;;;14.60;7.50;;;9.40;98.50;;;;;;4825961;29;20164;-95
2023/02/20 11:46:40;;;;;;;12.38;6.43;;;9.40;98.40;;;;;;4811150;29;20103;-95
2023/02/20 11:49:10;;;;;;;10.75;5.60;;;9.40;98.30;;;;;;4830085;29;20418;-94
2023/02/20 11:51:43;;;;;;;10.02;6.20;;;9.40;98.30;;;;;;4848497;29;20052;-94
2023/02/20 11:54:24;;;;;;;13.80;6.47;;;9.40;98.30;;;;;;4851755;29;20069;-94
2023/02/20 11:56:54;;;;;;;12.18;8.43;;;9.40;98.20;;;;;;4848574;29;20050;-95
2023/02/20 11:59:30;;;;;;;14.35;6.68;;;9.40;98.20;;;;;;4851610;29;20055;-94
2023/02/20 12:02:16;;;;;;;15.85;7.18;;;9.40;98.30;;;;;;4848855;29;20115;-94
2023/02/20 12:05:02;;;;;;;14.60;7.00;;;9.40;98.20;;;;;;4851182;29;20132;-93
2023/02/20 12:07:56;;;;;;;12.23;7.57;;;9.40;98.20;;;;;;4851040;29;20152;-95
2023/02/20 12:10:36;;;;;;;12.02;6.35;;;9.40;98.20;;;;;;4866457;29;20048;-89
2023/02/20 12:13:05;;;;;;;14.38;7.30;;;9.40;98.30;;;;;;4882796;29;20056;-88
2023/02/20 12:16:16;;;;;;;12.93;6.47;;;9.40;98.30;;;;;;4851590;29;20454;-88
2023/02/20 12:19:03;;;;;;;9.52;6.22;;;9.50;98.20;;;;;;4856030;29;20045;-88
2023/02/20 12:21:36;;;;;;;12.45;5.45;;;9.50;98.10;;;;;;4880247;29;20049;-88
2023/02/20 12:24:41;;;;;;;15.43;6.03;;;9.50;98.20;;;;;;4850010;29;20489;-86
2023/02/20 12:27:24;;;;;;;8.73;5.03;;;9.60;98.20;;;;;;4839075;29;20052;-91
2023/02/20 12:30:06;;;;;;;11.73;5.18;;;9.60;98.20;;;;;;4865034;29;20458;-85
2023/02/20 12:32:37;;;;;;;;;;;9.60;98.20;;;;;;4850210;29;20105;-88
2023/02/20 12:35:30;;;;;;;9.35;4.60;;;9.60;98.20;;;;;;4865277;29;19924;-85
2023/02/20 12:38:25;;;;;;;11.65;5.13;;;9.60;98.20;;;;;;4864624;29;20119;-88
2023/02/20 12:41:26;;;;;;;14.20;5.88;;;9.60;98.10;;;;;;4864384;29;20049;-86
2023/02/20 12:44:25;;;;;;;10.05;5.20;;;9.60;98.00;;;;;;4849616;29;20132;-87
2023/02/20 12:47:24;;;;;;;9.20;5.18;;;9.60;98.00;;;;;;4851974;29;20055;-88
2023/02/20 12:50:10;;;;;;;10.18;4.75;;;9.60;98.00;;;;;;4854002;29;20053;-89
2023/02/20 12:52:46;;;;;;;8.38;4.65;;;9.60;98.00;;;;;;4865062;29;20052;-94
2023/02/20 12:55:39;;;;;;;12.25;4.53;;;9.60;98.00;;;;;;4864628;29;20489;-93
2023/02/20 12:58:29;;;;;;;8.77;4.68;;;9.60;97.90;;;;;;4865266;29;20112;-94
2023/02/20 13:01:02;;;;;;;12.07;5.18;;;9.60;97.90;;;;;;4864789;29;20498;-91
2023/02/20 13:03:48;;;;;;;8.07;3.97;;;9.70;97.90;;;;;;4872958;29;20522;-90
2023/02/20 13:06:49;;;;;;;9.27;4.22;;;9.70;97.80;;;;;;4858838;29;20438;-86
2023/02/20 13:09:30;;;;;;;8.48;4.15;;;9.80;97.90;;;;;;4848590;29;20049;-86
2023/02/20 13:12:05;;;;;;;12.05;4.45;;;9.80;97.80;;;;;;4851942;29;20520;-87
2023/02/20 13:15:05;;;;;;;9.93;4.25;;;9.80;97.70;;;;;;4861263;29;20086;-87
2023/02/20 13:18:05;;;;;;;10.73;4.32;;;9.80;97.70;;;;;;4863562;29;20168;-87
2023/02/20 13:20:39;;;;;;;8.50;3.92;;;9.80;97.60;;;;;;4845926;29;20045;-86
2023/02/20 13:23:16;;;;;;;9.18;3.88;;;9.80;97.70;;;;;;4863934;29;20057;-87
2023/02/20 13:25:45;;;;;;;10.50;3.95;;;9.80;97.70;;;;;;4863682;29;20060;-88
2023/02/20 13:28:30;;;;;;;10.25;3.95;;;9.80;97.70;;;;;;4848615;29;20041;-86
2023/02/20 13:31:19;;;;;;;7.10;3.78;;;9.80;97.70;;;;;;4864189;29;20500;-86
2023/02/20 13:34:12;;;;;;;7.35;3.10;;;9.90;97.60;;;;;;4859857;29;20041;-87
2023/02/20 13:36:44;;;;;;;6.00;3.20;;;9.90;97.70;;;;;;4863302;29;20045;-87
2023/02/20 13:39:39;;;;;;;6.32;3.38;;;9.90;97.90;;;;;;4864120;29;20570;-89
2023/02/20 13:42:27;;;;;;;12.73;4.35;;;9.90;97.60;;;;;;4863567;29;20041;-88
2023/02/20 13:44:56;;;;;;;9.45;4.22;;;9.90;97.40;;;;;;4848689;29;20077;-89